createdAt,value
2023-05-12T00:01:38.740Z,101149.44
2023-05-12T00:04:06.571Z,101147.59
2023-05-12T00:06:34.605Z,101149.44
2023-05-12T00:09:01.784Z,101138.69
2023-05-12T00:11:29.032Z,101150.28
2023-05-12T00:13:56.383Z,101145.75
2023-05-12T00:16:23.615Z,101142.22
2023-05-12T00:18:52.177Z,101137.69
2023-05-12T00:21:19.508Z,101142.22
2023-05-12T00:23:46.687Z,101141.22
2023-05-12T00:26:13.859Z,101141.38
2023-05-12T00:28:41.035Z,101145.75
2023-05-12T00:31:08.276Z,101138.69
2023-05-12T00:33:35.703Z,101138.69
2023-05-12T00:36:04.093Z,101139.53
2023-05-12T00:38:31.548Z,101138.69
2023-05-12T00:40:58.732Z,101146.75
2023-05-12T00:43:25.953Z,101144.91
2023-05-12T00:45:53.713Z,101149.44
2023-05-12T00:48:21.300Z,101144.91
2023-05-12T00:50:48.502Z,101144.06
2023-05-12T00:53:15.793Z,101149.44
2023-05-12T00:55:43.019Z,101151.28
2023-05-12T00:58:10.216Z,101152.13
2023-05-12T01:00:37.454Z,101154.81
2023-05-12T01:03:05.140Z,101145.91
2023-05-12T01:05:37.412Z,101154.81
2023-05-12T01:08:05.225Z,101157.50
2023-05-12T01:10:32.404Z,101160.19
2023-05-12T01:12:59.631Z,101164.59
2023-05-12T01:15:26.942Z,101163.88
2023-05-12T01:17:57.747Z,101164.72
2023-05-12T01:20:26.575Z,101164.72
2023-05-12T01:22:54.408Z,101163.88
2023-05-12T01:25:24.597Z,101162.03
2023-05-12T01:27:53.415Z,101158.50
2023-05-12T01:30:21.938Z,101166.56
2023-05-12T01:32:49.281Z,101160.31
2023-05-12T01:35:16.552Z,101163.88
2023-05-12T01:37:43.716Z,101160.31
2023-05-12T01:40:11.145Z,101167.44
2023-05-12T01:42:40.681Z,101168.38
2023-05-12T01:45:08.526Z,101166.56
2023-05-12T01:47:35.829Z,101166.56
2023-05-12T01:50:03.397Z,101165.69
2023-05-12T01:52:30.625Z,101171.97
2023-05-12T01:54:57.800Z,101170.22
2023-05-12T01:57:24.991Z,101177.34
2023-05-12T01:59:52.159Z,101168.38
2023-05-12T02:02:19.319Z,101168.38
2023-05-12T02:04:46.490Z,101172.91
2023-05-12T02:07:15.566Z,101174.66
2023-05-12T02:09:42.742Z,101180.03
2023-05-12T02:12:09.989Z,101188.09
2023-05-12T02:14:37.144Z,101188.09
2023-05-12T02:17:04.659Z,101180.03
2023-05-12T02:19:31.857Z,101189.91
2023-05-12T02:21:59.143Z,101180.03
2023-05-12T02:24:26.325Z,101185.41
2023-05-12T02:26:53.487Z,101192.59
2023-05-12T02:29:20.713Z,101183.69
2023-05-12T02:31:47.928Z,101189.06
2023-05-12T02:34:15.153Z,101186.38
2023-05-12T02:36:42.401Z,101183.69
2023-05-12T02:39:09.656Z,101183.69
2023-05-12T02:41:36.897Z,101183.69
2023-05-12T02:44:04.053Z,101186.38
2023-05-12T02:46:31.218Z,101182.81
2023-05-12T02:48:58.381Z,101185.41
2023-05-12T02:51:25.591Z,101182.81
2023-05-12T02:53:52.758Z,101185.53
2023-05-12T02:56:20.793Z,101187.38
2023-05-12T02:58:48.041Z,101182.81
2023-05-12T03:01:15.332Z,101187.38
2023-05-12T03:03:42.674Z,101183.69
2023-05-12T03:06:10.221Z,101179.28
2023-05-12T03:08:37.464Z,101181.13
2023-05-12T03:11:04.724Z,101188.22
2023-05-12T03:13:31.912Z,101183.69
2023-05-12T03:16:01.562Z,101184.66
2023-05-12T03:18:29.202Z,101191.75
2023-05-12T03:20:56.490Z,101194.44
2023-05-12T03:23:23.692Z,101198.97
2023-05-12T03:25:50.849Z,101198.13
2023-05-12T03:28:18.060Z,101188.22
2023-05-12T03:30:45.368Z,101198.97
2023-05-12T03:33:12.586Z,101198.97
2023-05-12T03:35:39.767Z,101196.28
2023-05-12T03:38:07.131Z,101204.34
2023-05-12T03:40:34.557Z,101211.44
2023-05-12T03:43:01.744Z,101216.81
2023-05-12T03:45:28.921Z,101213.16
2023-05-12T03:47:56.417Z,101211.44
2023-05-12T03:50:23.604Z,101210.56
2023-05-12T03:52:50.834Z,101208.88
2023-05-12T03:55:18.072Z,101205.19
2023-05-12T03:57:45.228Z,101210.56
2023-05-12T04:00:12.971Z,101212.41
2023-05-12T04:02:41.339Z,101205.19
2023-05-12T04:05:09.956Z,101209.72
2023-05-12T04:07:37.382Z,101213.28
2023-05-12T04:10:04.924Z,101218.78
2023-05-12T04:12:32.103Z,101219.63
2023-05-12T04:14:59.685Z,101223.19
2023-05-12T04:17:26.907Z,101224.03
2023-05-12T04:19:54.130Z,101222.34
2023-05-12T04:22:22.776Z,101221.47
2023-05-12T04:24:51.360Z,101220.50
2023-05-12T04:27:18.538Z,101219.63
2023-05-12T04:29:45.716Z,101225.03
2023-05-12T04:32:12.997Z,101216.94
2023-05-12T04:34:40.258Z,101232.09
2023-05-12T04:37:07.457Z,101230.25
2023-05-12T04:39:34.622Z,101222.19
2023-05-12T04:42:02.346Z,101232.09
2023-05-12T04:44:29.749Z,101231.13
2023-05-12T04:46:58.001Z,101244.59
2023-05-12T04:49:25.379Z,101240.16
2023-05-12T04:51:52.544Z,101240.06
2023-05-12T04:54:19.762Z,101247.28
2023-05-12T04:56:47.000Z,101238.22
2023-05-12T04:59:15.788Z,101234.69
2023-05-12T05:01:43.549Z,101243.59
2023-05-12T05:04:10.878Z,101251.78
2023-05-12T05:06:38.085Z,101250.56
2023-05-12T05:09:05.259Z,101249.72
2023-05-12T05:11:32.516Z,101245.19
2023-05-12T05:13:59.708Z,101263.16
2023-05-12T05:16:27.136Z,101261.56
2023-05-12T05:18:54.443Z,101266.97
2023-05-12T05:21:21.693Z,101262.69
2023-05-12T05:23:48.910Z,101263.78
2023-05-12T05:26:16.300Z,101267.56
2023-05-12T05:28:43.551Z,101271.91
2023-05-12T05:31:16.428Z,101264.09
2023-05-12T05:33:44.362Z,101267.66
2023-05-12T05:36:11.713Z,101276.69
2023-05-12T05:38:39.028Z,101273.88
2023-05-12T05:41:06.808Z,101276.47
2023-05-12T05:43:33.990Z,101280.25
2023-05-12T05:46:01.204Z,101280.84
2023-05-12T05:48:28.397Z,101284.25
2023-05-12T05:50:55.658Z,101274.63
2023-05-12T05:53:23.038Z,101282.56
2023-05-12T05:55:50.435Z,101287.69
2023-05-12T05:58:17.630Z,101286.81
2023-05-12T06:00:44.833Z,101292.94
2023-05-12T06:03:12.276Z,101290.97
2023-05-12T06:05:42.196Z,101297.09
2023-05-12T06:08:11.070Z,101297.97
2023-05-12T06:10:38.748Z,101290.38
2023-05-12T06:13:06.389Z,101290.38
2023-05-12T06:15:33.794Z,101293.81
2023-05-12T06:18:01.093Z,101299.03
2023-05-12T06:20:28.343Z,101294.28
2023-05-12T06:22:55.528Z,101304.06
2023-05-12T06:25:22.883Z,101306.50
2023-05-12T06:27:52.973Z,101301.84
2023-05-12T06:30:20.189Z,101304.53
2023-05-12T06:32:47.449Z,101302.84
2023-05-12T06:35:14.678Z,101298.19
2023-05-12T06:37:44.816Z,101303.56
2023-05-12T06:40:12.158Z,101302.59
2023-05-12T06:42:39.359Z,101305.03
2023-05-12T06:45:07.093Z,101308.56
2023-05-12T06:47:34.300Z,101308.56
2023-05-12T06:50:01.473Z,101306.47
2023-05-12T06:52:28.650Z,101306.47
2023-05-12T06:54:55.942Z,101296.31
2023-05-12T06:57:23.125Z,101301.59
2023-05-12T06:59:50.309Z,101299.84
2023-05-12T07:02:17.521Z,101305.47
2023-05-12T07:04:44.700Z,101297.41
2023-05-12T07:07:11.845Z,101301.94
2023-05-12T07:09:40.575Z,101302.69
2023-05-12T07:12:08.059Z,101309.91
2023-05-12T07:14:35.242Z,101300.84
2023-05-12T07:17:02.949Z,101302.53
2023-05-12T07:19:30.281Z,101306.22
2023-05-12T07:21:58.792Z,101297.16
2023-05-12T07:24:27.601Z,101306.97
2023-05-12T07:26:54.793Z,101302.69
2023-05-12T07:29:22.501Z,101300.84
2023-05-12T07:31:50.113Z,101306.97
2023-05-12T07:34:17.657Z,101302.28
2023-05-12T07:36:44.828Z,101300.34
2023-05-12T07:39:14.930Z,101299.34
2023-05-12T07:41:43.665Z,101295.81
2023-05-12T07:44:11.020Z,101305.72
2023-05-12T07:46:38.389Z,101294.09
2023-05-12T07:49:07.263Z,101294.97
2023-05-12T07:51:34.584Z,101301.69
2023-05-12T07:54:01.811Z,101298.22
2023-05-12T07:56:28.992Z,101302.88
2023-05-12T07:58:56.225Z,101303.63
2023-05-12T08:01:24.242Z,101300.09
2023-05-12T08:03:51.683Z,101298.22
2023-05-12T08:06:19.393Z,101295.75
2023-05-12T08:08:46.552Z,101304.16
2023-05-12T08:11:13.722Z,101292.16
2023-05-12T08:13:40.909Z,101293.63
2023-05-12T08:16:08.229Z,101304.00
2023-05-12T08:18:35.646Z,101308.09
2023-05-12T08:21:03.058Z,101306.66
2023-05-12T08:23:30.238Z,101300.81
2023-05-12T08:25:57.440Z,101298.00
2023-05-12T08:28:24.630Z,101303.38
2023-05-12T08:30:51.889Z,101307.75
2023-05-12T08:33:19.086Z,101300.19
2023-05-12T08:35:46.307Z,101304.72
2023-05-12T08:38:13.607Z,101299.28
2023-05-12T08:40:59.746Z,101307.25
2023-05-12T08:43:31.026Z,101306.91
2023-05-12T08:45:58.465Z,101305.31
2023-05-12T08:48:29.970Z,101304.72
2023-05-12T08:50:57.610Z,101302.97
2023-05-12T08:53:25.027Z,101302.97
2023-05-12T08:57:09.367Z,101304.72
2023-05-12T08:58:42.126Z,101299.34
2023-05-12T09:01:12.235Z,101306.16
2023-05-12T09:03:39.606Z,101304.72
2023-05-12T09:06:08.407Z,101296.97
2023-05-12T09:08:37.631Z,101293.94
2023-05-12T09:11:05.537Z,101300.44
2023-05-12T09:13:50.916Z,101303.22
2023-05-12T09:16:25.177Z,101293.63
2023-05-12T09:18:57.531Z,101292.16
2023-05-12T09:21:26.475Z,101295.22
2023-05-12T09:24:00.835Z,101295.31
2023-05-12T09:26:28.987Z,101290.88
2023-05-12T09:29:08.617Z,101303.50
2023-05-12T09:31:36.561Z,101287.22
2023-05-12T09:34:08.479Z,101293.56
2023-05-12T09:36:36.208Z,101293.38
2023-05-12T09:39:06.815Z,101291.28
2023-05-12T09:41:38.189Z,101292.69
2023-05-12T09:44:06.535Z,101297.19
2023-05-12T09:46:34.155Z,101287.31
2023-05-12T09:49:03.199Z,101284.03
2023-05-12T09:51:33.603Z,101294.53
2023-05-12T09:54:01.419Z,101288.75
2023-05-12T09:56:32.041Z,101281.94
2023-05-12T09:58:59.460Z,101288.91
2023-05-12T10:01:28.209Z,101301.25
2023-05-12T10:03:56.880Z,101299.66
2023-05-12T10:06:28.386Z,101296.84
2023-05-12T10:09:45.349Z,101296.25
2023-05-12T10:12:13.458Z,101293.44
2023-05-12T10:14:41.497Z,101294.53
2023-05-12T10:17:10.029Z,101292.72
2023-05-12T10:19:38.746Z,101279.41
2023-05-12T10:22:06.630Z,101273.38
2023-05-12T10:24:34.460Z,101284.16
2023-05-12T10:27:03.191Z,101261.66
2023-05-12T10:29:32.844Z,101270.69
2023-05-12T10:32:03.721Z,101269.00
2023-05-12T10:34:34.217Z,101275.22
2023-05-12T10:37:03.626Z,101267.03
2023-05-12T10:39:33.349Z,101268.75
2023-05-12T10:42:10.294Z,101272.16
2023-05-12T10:44:47.814Z,101267.63
2023-05-12T10:47:15.155Z,101276.81
2023-05-12T10:49:43.171Z,101263.09
2023-05-12T10:52:13.154Z,101269.22
2023-05-12T10:54:44.797Z,101262.00
2023-05-12T10:57:20.329Z,101261.16
2023-05-12T10:59:53.031Z,101256.88
2023-05-12T11:02:25.612Z,101270.19
2023-05-12T11:05:06.790Z,101262.84
2023-05-12T11:07:35.481Z,101269.09
2023-05-12T11:10:05.552Z,101262.13
2023-05-12T11:12:35.436Z,101256.03
2023-05-12T11:15:04.521Z,101251.34
2023-05-12T11:17:32.284Z,101254.78
2023-05-12T11:20:01.106Z,101253.94
2023-05-12T11:22:28.486Z,101239.63
2023-05-12T11:24:55.864Z,101246.72
2023-05-12T11:27:23.998Z,101244.56
2023-05-12T11:29:59.268Z,101259.34
2023-05-12T11:32:27.020Z,101246.09
2023-05-12T11:34:54.418Z,101260.16
2023-05-12T11:37:22.169Z,101255.25
2023-05-12T11:39:49.601Z,101262.19
2023-05-12T11:42:19.828Z,101256.53
2023-05-12T11:44:48.871Z,101258.13
2023-05-12T11:47:17.390Z,101270.47
2023-05-12T11:49:55.021Z,101260.69
2023-05-12T11:52:23.890Z,101267.66
2023-05-12T11:54:52.694Z,101266.56
2023-05-12T11:57:34.368Z,101266.94
2023-05-12T12:00:04.810Z,101267.22
2023-05-12T12:02:33.266Z,101266.22
2023-05-12T12:05:00.774Z,101273.59
2023-05-12T12:07:35.420Z,101267.47
2023-05-12T12:10:16.721Z,101265.78
2023-05-12T12:12:44.422Z,101273.94
2023-05-12T12:15:12.101Z,101269.56
2023-05-12T12:17:40.493Z,101258.31
2023-05-12T12:20:09.194Z,101260.31
2023-05-12T12:22:37.147Z,101260.16
2023-05-12T12:25:05.154Z,101262.44
2023-05-12T12:27:32.435Z,101261.34
2023-05-12T12:29:59.893Z,101271.84
2023-05-12T12:32:27.227Z,101267.22
2023-05-12T12:34:54.522Z,101257.19
2023-05-12T12:37:22.057Z,101269.06
2023-05-12T12:39:49.460Z,101269.28
2023-05-12T12:42:16.934Z,101258.72
2023-05-12T12:44:46.061Z,101256.53
2023-05-12T12:47:13.514Z,101261.44
2023-05-12T12:49:40.774Z,101264.16
2023-05-12T12:52:08.121Z,101265.97
2023-05-12T12:54:35.708Z,101272.97
2023-05-12T12:57:02.872Z,101264.16
2023-05-12T12:59:30.077Z,101264.03
2023-05-12T13:01:59.953Z,101253.00
2023-05-12T13:04:27.422Z,101246.09
2023-05-12T13:06:54.833Z,101245.59
2023-05-12T13:09:22.929Z,101248.88
2023-05-12T13:11:50.662Z,101262.66
2023-05-12T13:14:17.923Z,101255.75
2023-05-12T13:16:45.947Z,101254.78
2023-05-12T13:19:13.972Z,101259.91
2023-05-12T13:21:41.931Z,101254.53
2023-05-12T13:24:09.261Z,101254.53
2023-05-12T13:26:36.757Z,101254.53
2023-05-12T13:29:04.330Z,101257.91
2023-05-12T13:31:31.701Z,101258.50
2023-05-12T13:33:59.086Z,101250.03
2023-05-12T13:36:26.835Z,101252.47
2023-05-12T13:38:54.319Z,101249.78
2023-05-12T13:41:21.796Z,101258.81
2023-05-12T13:43:49.000Z,101256.00
2023-05-12T13:46:16.200Z,101260.81
2023-05-12T13:48:43.555Z,101250.75
2023-05-12T13:51:11.020Z,101257.84
2023-05-12T13:53:39.540Z,101250.63
2023-05-12T13:56:07.459Z,101251.88
2023-05-12T13:58:34.735Z,101242.34
2023-05-12T14:01:02.742Z,101249.97
2023-05-12T14:03:29.916Z,101234.09
2023-05-12T14:05:57.137Z,101243.28
2023-05-12T14:08:24.445Z,101254.16
2023-05-12T14:10:51.690Z,101249.19
2023-05-12T14:13:18.858Z,101245.91
2023-05-12T14:15:49.368Z,101239.41
2023-05-12T14:18:17.469Z,101238.63
2023-05-12T14:20:45.194Z,101226.72
2023-05-12T14:23:12.604Z,101227.84
2023-05-12T14:25:40.199Z,101238.63
2023-05-12T14:28:07.506Z,101245.72
2023-05-12T14:30:35.316Z,101245.72
2023-05-12T14:33:03.303Z,101240.06
2023-05-12T14:35:31.209Z,101234.66
2023-05-12T14:38:00.187Z,101235.66
2023-05-12T14:40:27.557Z,101242.16
2023-05-12T14:42:55.424Z,101242.53
2023-05-12T14:45:23.358Z,101237.56
2023-05-12T14:47:51.004Z,101243.94
2023-05-12T14:50:28.495Z,101235.72
2023-05-12T14:52:55.919Z,101235.72
2023-05-12T14:55:23.636Z,101234.03
2023-05-12T14:57:51.229Z,101240.44
2023-05-12T15:00:18.977Z,101233.41
2023-05-12T15:02:46.539Z,101234.16
2023-05-12T15:05:14.084Z,101232.03
2023-05-12T15:07:41.455Z,101240.69
2023-05-12T15:10:08.947Z,101234.03
2023-05-12T15:12:36.248Z,101242.84
2023-05-12T15:15:06.768Z,101237.31
2023-05-12T15:17:34.332Z,101241.84
2023-05-12T15:20:01.575Z,101238.03
2023-05-12T15:22:31.323Z,101231.66
2023-05-12T15:25:02.248Z,101238.63
2023-05-12T15:27:29.415Z,101235.94
2023-05-12T15:29:56.713Z,101230.81
2023-05-12T15:32:23.917Z,101236.66
2023-05-12T15:34:51.756Z,101228.59
2023-05-12T15:37:18.922Z,101235.88
2023-05-12T15:39:46.397Z,101225.16
2023-05-12T15:42:14.657Z,101235.78
2023-05-12T15:44:46.739Z,101231.22
2023-05-12T15:47:13.932Z,101237.31
2023-05-12T15:49:41.096Z,101242.13
2023-05-12T15:52:11.367Z,101238.97
2023-05-12T15:54:39.144Z,101233.13
2023-05-12T15:57:06.970Z,101236.63
2023-05-12T15:59:34.268Z,101228.06
2023-05-12T16:02:01.732Z,101233.03
2023-05-12T16:04:29.655Z,101235.56
2023-05-12T16:06:57.380Z,101229.34
2023-05-12T16:09:24.719Z,101233.88
2023-05-12T16:11:53.117Z,101229.47
2023-05-12T16:14:21.883Z,101233.16
2023-05-12T16:16:50.279Z,101233.41
2023-05-12T16:19:18.424Z,101229.28
2023-05-12T16:21:45.658Z,101230.13
2023-05-12T16:24:13.174Z,101230.03
2023-05-12T16:26:41.209Z,101228.88
2023-05-12T16:29:08.449Z,101233.41
2023-05-12T16:31:36.431Z,101228.34
2023-05-12T16:34:03.990Z,101231.63
2023-05-12T16:36:32.092Z,101228.38
2023-05-12T16:38:59.682Z,101228.13
2023-05-12T16:41:28.768Z,101230.44
2023-05-12T16:43:56.383Z,101222.06
2023-05-12T16:46:24.252Z,101225.50
2023-05-12T16:48:51.512Z,101231.72
2023-05-12T16:51:18.731Z,101230.63
2023-05-12T16:53:46.214Z,101226.81
2023-05-12T16:56:13.430Z,101234.03
2023-05-12T16:58:40.988Z,101234.75
2023-05-12T17:01:09.350Z,101226.81
2023-05-12T17:03:36.838Z,101233.59
2023-05-12T17:06:04.157Z,101238.84
2023-05-12T17:08:31.489Z,101239.09
2023-05-12T17:10:58.686Z,101237.28
2023-05-12T17:13:25.942Z,101239.09
2023-05-12T17:15:53.273Z,101237.00
2023-05-12T17:18:20.492Z,101244.47
2023-05-12T17:20:47.705Z,101249.88
2023-05-12T17:23:14.940Z,101247.19
2023-05-12T17:25:42.553Z,101251.59
2023-05-12T17:28:10.792Z,101256.00
2023-05-12T17:30:38.036Z,101251.59
2023-05-12T17:33:05.423Z,101256.13
2023-05-12T17:35:32.635Z,101258.22
2023-05-12T17:37:59.888Z,101260.91
2023-05-12T17:40:27.089Z,101257.22
2023-05-12T17:42:54.280Z,101267.28
2023-05-12T17:45:21.827Z,101260.91
2023-05-12T17:47:50.332Z,101262.59
2023-05-12T17:50:17.656Z,101269.97
2023-05-12T17:52:44.998Z,101279.03
2023-05-12T17:55:12.663Z,101278.19
2023-05-12T17:57:39.844Z,101287.97
2023-05-12T18:00:10.390Z,101284.16
2023-05-12T18:02:38.504Z,101287.97
2023-05-12T18:05:06.523Z,101293.63
2023-05-12T18:07:34.072Z,101286.44
2023-05-12T18:10:01.383Z,101280.38
2023-05-12T18:12:28.629Z,101285.59
2023-05-12T18:14:56.745Z,101289.66
2023-05-12T18:17:24.119Z,101295.28
2023-05-12T18:19:51.460Z,101286.63
2023-05-12T18:22:18.879Z,101292.16
2023-05-12T18:24:46.334Z,101296.81
2023-05-12T18:27:13.505Z,101297.53
2023-05-12T18:29:40.676Z,101298.41
2023-05-12T18:32:08.227Z,101303.31
2023-05-12T18:34:35.778Z,101295.50
2023-05-12T18:37:03.126Z,101294.78
2023-05-12T18:39:30.853Z,101309.94
2023-05-12T18:41:59.232Z,101311.91
2023-05-12T18:44:26.438Z,101315.59
2023-05-12T18:46:53.861Z,101322.66
2023-05-12T18:49:21.119Z,101331.84
2023-05-12T18:51:48.353Z,101326.63
2023-05-12T18:54:16.003Z,101331.16
2023-05-12T18:56:43.194Z,101339.34
2023-05-12T18:59:10.410Z,101343.03
2023-05-12T19:01:37.746Z,101343.28
2023-05-12T19:04:05.128Z,101355.75
2023-05-12T19:06:32.674Z,101342.44
2023-05-12T19:09:00.994Z,101350.63
2023-05-12T19:11:28.411Z,101349.91
2023-05-12T19:13:55.619Z,101347.34
2023-05-12T19:16:23.780Z,101356.25
2023-05-12T19:18:51.577Z,101355.41
2023-05-12T19:21:18.851Z,101361.28
2023-05-12T19:23:46.044Z,101357.47
2023-05-12T19:26:13.464Z,101360.03
2023-05-12T19:28:40.721Z,101362.59
2023-05-12T19:31:07.917Z,101367.00
2023-05-12T19:33:35.281Z,101362.59
2023-05-12T19:36:02.509Z,101357.22
2023-05-12T19:38:29.865Z,101368.00
2023-05-12T19:40:57.209Z,101373.38
2023-05-12T19:43:24.565Z,101368.00
2023-05-12T19:45:51.972Z,101368.94
2023-05-12T19:48:21.331Z,101366.25
2023-05-12T19:50:48.597Z,101369.09
2023-05-12T19:53:15.834Z,101371.66
2023-05-12T19:55:43.028Z,101372.63
2023-05-12T19:58:10.214Z,101380.72
2023-05-12T20:00:39.258Z,101380.72
2023-05-12T20:03:06.930Z,101382.41
2023-05-12T20:05:41.090Z,101381.72
2023-05-12T20:08:08.282Z,101380.72
2023-05-12T20:10:35.640Z,101386.09
2023-05-12T20:13:03.814Z,101384.41
2023-05-12T20:15:32.075Z,101386.34
2023-05-12T20:17:59.364Z,101378.13
2023-05-12T20:20:26.761Z,101380.97
2023-05-12T20:22:54.146Z,101378.13
2023-05-12T20:25:21.493Z,101385.50
2023-05-12T20:27:49.128Z,101383.66
2023-05-12T20:30:16.713Z,101381.13
2023-05-12T20:32:44.076Z,101390.03
2023-05-12T20:35:11.541Z,101388.31
2023-05-12T20:37:40.437Z,101382.91
2023-05-12T20:40:08.140Z,101389.19
2023-05-12T20:42:35.528Z,101384.91
2023-05-12T20:45:02.739Z,101382.06
2023-05-12T20:47:30.717Z,101381.47
2023-05-12T20:49:58.637Z,101387.59
2023-05-12T20:52:28.847Z,101384.91
2023-05-12T20:54:57.986Z,101393.84
2023-05-12T20:57:26.052Z,101397.50
2023-05-12T20:59:54.445Z,101399.22
2023-05-12T21:02:21.890Z,101400.22
2023-05-12T21:04:49.109Z,101404.84
2023-05-12T21:07:16.404Z,101397.75
2023-05-12T21:09:43.596Z,101404.09
2023-05-12T21:12:10.820Z,101406.81
2023-05-12T21:14:42.053Z,101403.22
2023-05-12T21:17:10.312Z,101403.22
2023-05-12T21:19:38.331Z,101411.56
2023-05-12T21:22:06.720Z,101402.53
2023-05-12T21:24:34.298Z,101407.03
2023-05-12T21:27:05.557Z,101413.41
2023-05-12T21:29:33.782Z,101413.28
2023-05-12T21:32:01.567Z,101410.59
2023-05-12T21:34:29.009Z,101406.16
2023-05-12T21:36:56.536Z,101421.34
2023-05-12T21:39:23.759Z,101410.34
2023-05-12T21:41:51.077Z,101408.38
2023-05-12T21:44:18.280Z,101417.69
2023-05-12T21:46:45.528Z,101420.38
2023-05-12T21:49:12.682Z,101423.91
2023-05-12T21:51:39.957Z,101421.34
2023-05-12T21:54:07.468Z,101421.59
2023-05-12T21:56:34.890Z,101420.13
2023-05-12T21:59:02.048Z,101424.78
2023-05-12T22:01:29.844Z,101420.25
2023-05-12T22:04:00.118Z,101419.63
2023-05-12T22:06:27.439Z,101420.84
2023-05-12T22:08:54.856Z,101415.22
2023-05-12T22:11:23.254Z,101416.97
2023-05-12T22:13:51.073Z,101412.69
2023-05-12T22:16:21.758Z,101421.50
2023-05-12T22:18:53.211Z,101417.81
2023-05-12T22:21:20.560Z,101410.72
2023-05-12T22:23:47.844Z,101410.56
2023-05-12T22:26:15.063Z,101415.97
2023-05-12T22:28:42.663Z,101419.66
2023-05-12T22:31:09.923Z,101423.19
2023-05-12T22:33:37.136Z,101414.13
2023-05-12T22:36:04.472Z,101418.50
2023-05-12T22:38:31.668Z,101418.66
2023-05-12T22:40:58.881Z,101423.06
2023-05-12T22:43:26.276Z,101421.22
2023-05-12T22:45:55.653Z,101421.09
2023-05-12T22:48:23.398Z,101417.56
2023-05-12T22:50:54.158Z,101422.94
2023-05-12T22:53:21.353Z,101418.41
2023-05-12T22:55:48.881Z,101418.41
2023-05-12T22:58:16.072Z,101421.09
2023-05-12T23:00:43.366Z,101425.50
2023-05-12T23:03:10.736Z,101423.66
2023-05-12T23:05:37.994Z,101412.88
2023-05-12T23:08:05.219Z,101415.56
2023-05-12T23:10:32.372Z,101421.84
2023-05-12T23:12:59.548Z,101416.31
2023-05-12T23:15:26.736Z,101419.00
2023-05-12T23:17:54.087Z,101407.38
2023-05-12T23:20:21.582Z,101412.78
2023-05-12T23:22:48.981Z,101415.47
2023-05-12T23:25:16.406Z,101414.47
2023-05-12T23:27:43.581Z,101409.09
2023-05-12T23:30:11.253Z,101410.94
2023-05-12T23:32:38.680Z,101418.00
2023-05-12T23:35:06.423Z,101410.06
2023-05-12T23:37:33.619Z,101413.63
2023-05-12T23:40:00.878Z,101418.00
2023-05-12T23:42:28.141Z,101410.94
2023-05-12T23:44:55.548Z,101416.31
2023-05-12T23:47:22.980Z,101419.00
2023-05-12T23:49:50.193Z,101418.16
2023-05-12T23:52:17.369Z,101419.00
2023-05-12T23:54:44.597Z,101419.84
2023-05-12T23:57:11.781Z,101419.00
2023-05-12T23:59:38.983Z,101417.16
